Latest Weather Observations for Scotts Peak

IDT60801

Issued at 3:02 am EST Thursday 28 July 2016 (issued every 30 minutes, with the page automatically refreshed every 10 minutes)

About weather observations | Map of weather stations | Latest weather observations for TAS | Other Formats
Station Details ID: 097083 Name: SCOTTS PEAK DAM Lat: -43.04 Lon: 146.27 Height: 408.0 m
Data from the previous 72 hours. | See also: Recent months at Scotts Peak
Date/Time
EST
Temp
°C
App
Temp
°C
Dew
Point
°C
Rel
Hum
%
Delta-T
°C
Wind Press
QNH
hPa
Press
MSL
hPa
Rain since
9am
mm
Dir  Spd
km/h
Gust
km/h
Spd
kts
Gust
kts
28/03:00am 6.1 -5.6 6.0 99 0.0 NW 57 69 31 37 - - 9.8
28/02:30am 5.8 -4.7 5.7 99 0.0 WNW 50 67 27 36 - - 9.8
28/02:00am 6.1 -4.8 5.4 95 0.3 WNW 52 70 28 38 - - 9.4
28/01:37am 6.3 -4.6 5.7 96 0.3 WNW 52 70 28 38 - - 9.2
28/01:30am 6.3 -5.3 5.9 97 0.2 WNW 56 69 30 37 - - 9.0
28/01:22am 6.3 -4.5 5.9 97 0.2 NW 52 74 28 40 - - 8.8
28/01:17am 6.1 -3.0 5.8 98 0.1 WNW 43 72 23 39 - - 8.8
28/01:15am 6.1 -2.3 5.7 97 0.2 WNW 39 63 21 34 - - 8.8
28/01:00am 6.4 -2.9 4.9 90 0.7 WNW 43 57 23 31 - - 8.8
28/12:30am 6.4 -3.5 4.6 88 0.8 WNW 46 65 25 35 - - 8.8
28/12:00am 6.5 -4.3 4.0 84 1.1 WNW 50 69 27 37 - - 8.8
 
Date/Time
EST
Temp
°C
App
Temp
°C
Dew
Point
°C
Rel
Hum
%
Delta-T
°C
Wind Press
QNH
hPa
Press
MSL
hPa
Rain since
9am
mm
Dir  Spd
km/h
Gust
km/h
Spd
kts
Gust
kts
27/11:40pm 6.5 -4.7 4.0 84 1.1 WNW 52 70 28 38 - - 8.8
27/11:30pm 6.4 -4.0 4.2 86 1.0 WNW 48 61 26 33 - - 8.8
27/11:00pm 6.0 -3.4 4.6 91 0.6 WNW 43 63 23 34 - - 8.6
27/10:30pm 6.7 -4.1 4.2 84 1.1 WNW 50 72 27 39 - - 8.6
27/10:00pm 7.2 -3.8 2.9 74 1.8 WNW 50 70 27 38 - - 8.6
27/09:47pm 7.3 -3.0 2.8 73 1.9 WNW 46 67 25 36 - - 8.6
27/09:40pm 7.0 -3.6 2.9 75 1.8 W 48 69 26 37 - - 8.6
27/09:31pm 7.1 -5.6 2.8 74 1.8 WNW 59 78 32 42 - - 8.6
27/09:30pm 7.2 -5.8 3.3 76 1.7 WNW 61 78 33 42 - - 8.6
27/09:02pm 7.2 -3.8 3.1 75 1.8 WNW 50 69 27 37 - - 8.4
27/09:00pm 7.0 -4.3 3.6 79 1.5 WNW 52 65 28 35 - - 8.4
27/08:30pm 7.0 -3.8 4.3 83 1.2 W 50 76 27 41 - - 8.4
27/08:00pm 7.1 -4.1 4.2 82 1.3 WNW 52 78 28 42 - - 8.4
27/07:30pm 7.1 -4.3 5.1 87 0.9 W 54 80 29 43 - - 8.2
27/07:00pm 6.8 -4.4 6.1 95 0.3 W 54 83 29 45 - - 8.0
27/06:54pm 7.0 -6.0 5.5 90 0.7 W 63 91 34 49 - - 7.6
27/06:53pm 7.1 -6.7 5.1 87 0.9 W 67 96 36 52 - - 7.6
27/06:45pm 7.1 -7.1 5.1 87 0.9 WNW 69 100 37 54 - - 7.4
27/06:44pm 7.3 -7.0 4.6 83 1.2 WNW 69 100 37 54 - - 7.4
27/06:30pm 7.3 -5.9 6.4 94 0.4 WNW 65 87 35 47 - - 7.2
27/06:00pm 7.1 -8.5 6.7 97 0.2 WNW 78 106 42 57 - - 7.0
27/05:30pm 6.5 -8.8 6.4 99 0.0 WNW 76 100 41 54 - - 6.2
27/05:00pm 5.0 -9.4 5.0 100 0.0 NW 70 100 38 54 - - 5.2
27/04:35pm 4.4 -10.0 4.3 99 0.0 NW 69 87 37 47 - - 4.2
27/04:30pm 4.3 -10.3 4.2 99 0.0 NW 70 87 38 47 - - 4.0
27/04:00pm 3.4 -9.6 3.3 99 0.0 NW 61 82 33 44 - - 3.2
27/03:41pm 3.6 -8.1 3.5 99 0.0 NW 54 78 29 42 - - 2.4
27/03:30pm 3.5 -8.2 3.4 99 0.0 NW 54 67 29 36 - - 2.0
27/03:17pm 3.6 -9.0 3.5 99 0.0 NW 59 82 32 44 - - 1.8
27/03:13pm 3.7 -8.3 3.6 99 0.0 NW 56 82 30 44 - - 1.8
27/03:10pm 3.5 -7.4 3.4 99 0.0 NW 50 72 27 39 - - 1.6
27/03:00pm 3.6 -7.7 3.5 99 0.0 NW 52 69 28 37 - - 1.6
27/02:31pm 3.1 -8.3 3.0 99 0.0 NW 52 70 28 38 - - 1.6
27/02:30pm 3.1 -8.3 3.0 99 0.0 NW 52 69 28 37 - - 1.4
27/02:00pm 3.1 -8.3 2.8 98 0.1 NW 52 72 28 39 - - 1.2
27/01:30pm 3.4 -7.3 2.5 94 0.4 NW 48 67 26 36 - - 1.0
27/01:04pm 3.3 -5.6 3.2 99 0.0 NW 39 63 21 34 - - 0.8
27/01:00pm 3.3 -5.2 3.2 99 0.0 NW 37 48 20 26 - - 0.8
27/12:30pm 3.3 -5.6 2.9 97 0.2 NW 39 59 21 32 - - 0.8
27/12:28pm 3.4 -5.1 3.3 99 0.0 NW 37 59 20 32 - - 0.8
27/12:00pm 3.3 -4.6 2.3 93 0.4 WNW 33 43 18 23 - - 0.4
27/11:30am 3.8 -5.2 2.5 91 0.5 WNW 39 48 21 26 - - 0.4
27/11:00am 2.2 -6.6 1.3 94 0.4 WNW 37 46 20 25 - - 0.2
27/10:30am 4.6 -3.4 3.9 95 0.3 NW 35 44 19 24 - - 0.0
27/10:00am 2.7 -7.1 2.3 97 0.2 WNW 43 56 23 30 - - 0.0
27/09:41am 2.2 -6.6 1.5 95 0.3 WNW 37 50 20 27 - - 0.0
27/09:30am 1.9 -8.2 1.8 99 0.0 NW 44 54 24 29 - - 0.0
27/09:00am 1.4 -7.1 0.8 96 0.2 WNW 35 44 19 24 - - 21.8
27/08:39am 1.6 -5.6 0.6 93 0.4 WNW 28 46 15 25 - - 21.6
27/08:30am 1.6 -4.9 0.4 92 0.5 W 24 37 13 20 - - 21.6
27/08:00am 2.0 -6.1 -0.1 86 0.8 WNW 32 41 17 22 - - 21.6
27/07:30am 1.7 -5.5 0.4 91 0.5 WNW 28 37 15 20 - - 21.6
27/07:00am 1.8 -3.8 -0.1 87 0.7 WSW 19 30 10 16 - - 21.6
27/06:30am 1.8 -4.7 0.2 89 0.6 WNW 24 32 13 17 - - 21.6
27/06:00am 1.9 -5.3 0.4 90 0.6 WNW 28 41 15 22 - - 21.6
27/05:30am 1.9 -4.2 0.4 90 0.6 WNW 22 32 12 17 - - 21.6
27/05:00am 1.8 -5.8 0.3 90 0.6 W 30 43 16 23 - - 21.6
27/04:46am 2.2 -4.3 0.3 87 0.7 W 24 39 13 21 - - 21.6
27/04:30am 2.0 -6.0 0.4 89 0.6 W 32 54 17 29 - - 21.6
27/04:28am 1.9 -5.3 0.6 91 0.5 W 28 54 15 29 - - 21.6
27/04:00am 2.5 -2.5 1.5 93 0.4 WSW 17 32 9 17 - - 21.2
27/03:30am 2.1 -5.7 1.8 98 0.1 WSW 32 59 17 32 - - 21.2
27/03:22am 2.2 -4.0 2.1 99 0.0 WSW 24 59 13 32 - - 21.2
27/03:00am 2.4 -2.5 2.3 99 0.0 W 17 32 9 17 - - 20.6
27/02:30am 2.4 -3.4 2.3 99 0.0 SW 22 33 12 18 - - 20.0
27/02:00am 2.4 -5.9 2.3 99 0.0 WSW 35 59 19 32 - - 19.4
27/01:53am 2.6 -6.4 2.5 99 0.0 WSW 39 61 21 33 - - 18.8
27/01:30am 3.3 -5.2 3.2 99 0.0 W 37 56 20 30 - - 16.2
27/01:28am 3.3 -4.4 3.2 99 0.0 WNW 33 52 18 28 - - 15.6
27/01:00am 3.5 -6.3 3.5 100 0.0 NW 44 61 24 33 - - 14.0
27/12:55am 3.2 -5.7 3.2 100 0.0 NNW 39 57 21 31 - - 13.8
27/12:30am 2.7 -7.0 2.7 100 0.0 NNW 43 52 23 28 - - 12.6
27/12:00am 2.5 -8.6 2.4 99 0.0 NNW 50 61 27 33 - - 12.0
 
Date/Time
EST
Temp
°C
App
Temp
°C
Dew
Point
°C
Rel
Hum
%
Delta-T
°C
Wind Press
QNH
hPa
Press
MSL
hPa
Rain since
9am
mm
Dir  Spd
km/h
Gust
km/h
Spd
kts
Gust
kts
26/11:30pm 2.8 -8.6 2.7 99 0.0 NNW 52 61 28 33 - - 11.2
26/11:00pm 2.9 -7.4 2.9 100 0.0 NNW 46 57 25 31 - - 10.6
26/10:30pm 3.0 -6.9 3.0 100 0.0 NNW 44 54 24 29 - - 9.8
26/10:00pm 2.4 -5.5 2.4 100 0.0 NNW 33 41 18 22 - - 9.2
26/09:30pm 2.1 -6.2 2.1 100 0.0 NNW 35 48 19 26 - - 9.2
26/09:00pm 1.7 -5.7 1.6 99 0.0 NNW 30 37 16 20 - - 9.0
26/08:30pm 1.3 -5.8 1.2 99 0.0 NNW 28 37 15 20 - - 8.8
26/08:00pm 1.4 -6.5 1.3 99 0.0 NNW 32 39 17 21 - - 8.4
26/07:30pm 1.5 -6.9 1.4 99 0.0 NNW 35 43 19 23 - - 8.0
26/07:00pm 1.9 -6.5 1.8 99 0.0 NNW 35 43 19 23 - - 7.8
26/06:30pm 1.9 -5.1 1.8 99 0.0 NNW 28 35 15 19 - - 7.6
26/06:00pm 2.2 -4.0 2.1 99 0.0 NNW 24 32 13 17 - - 7.0
26/05:30pm 1.8 -3.7 1.7 99 0.0 NNW 20 26 11 14 - - 7.0
26/05:00pm 1.7 -6.7 1.6 99 0.0 NNW 35 43 19 23 - - 6.8
26/04:30pm 2.2 -3.6 2.1 99 0.0 NW 22 44 12 24 - - 6.0
26/04:28pm 2.1 -3.2 2.0 99 0.0 WNW 19 44 10 24 - - 6.0
26/04:00pm 2.1 -2.4 2.0 99 0.0 WNW 15 24 8 13 - - 5.6
26/03:30pm 1.6 -5.9 1.5 99 0.0 WNW 30 41 16 22 - - 5.6
26/03:20pm 1.6 -8.9 1.5 99 0.0 W 46 67 25 36 - - 5.4
26/03:14pm 1.8 -9.0 1.7 99 0.0 NW 48 67 26 36 - - 5.0
26/03:00pm 1.8 -10.6 1.7 99 0.0 NW 56 76 30 41 - - 4.8
26/02:58pm 1.7 -10.9 1.6 99 0.0 NW 57 76 31 41 - - 4.8
26/02:45pm 1.6 -9.7 1.5 99 0.0 NW 50 76 27 41 - - 4.4
26/02:43pm 2.0 -8.4 1.9 99 0.0 NW 46 67 25 36 - - 4.4
26/02:30pm 2.5 -7.8 2.4 99 0.0 NW 46 57 25 31 - - 3.6
26/02:13pm 2.1 -7.7 2.0 99 0.0 NW 43 61 23 33 - - 3.4
26/02:00pm 1.9 -8.0 1.8 99 0.0 WNW 43 56 23 30 - - 3.0
26/01:54pm 1.9 -6.9 1.5 97 0.2 WNW 37 56 20 30 - - 2.8
26/01:30pm 3.5 -5.8 2.9 96 0.2 WNW 41 54 22 29 - - 2.0
26/01:00pm 3.0 -8.0 2.9 99 0.0 WNW 50 69 27 37 - - 2.0
26/12:34pm 3.0 -7.3 2.9 99 0.0 NW 46 65 25 35 - - 1.8
26/12:30pm 2.5 -8.6 2.4 99 0.0 NW 50 65 27 35 - - 1.6
26/12:00pm 3.0 -7.6 2.9 99 0.0 WNW 48 67 26 36 - - 1.2
26/11:49am 3.0 -7.9 1.5 90 0.6 WNW 48 69 26 37 - - 1.0
26/11:30am 2.9 -7.8 2.8 99 0.0 NW 48 59 26 32 - - 1.0
26/11:00am 3.0 -8.1 2.6 97 0.2 NW 50 63 27 34 - - 0.8
26/10:30am 3.0 -9.8 2.4 96 0.2 WNW 59 83 32 45 - - 0.6
26/10:01am 2.3 -8.9 1.7 96 0.2 WNW 50 69 27 37 - - 0.2
26/10:00am 2.3 -8.9 1.7 96 0.2 WNW 50 61 27 33 - - 0.2
26/09:31am 2.8 -8.3 2.7 99 0.0 NW 50 70 27 38 - - 0.0
26/09:30am 2.6 -8.1 2.5 99 0.0 NW 48 61 26 33 - - 0.0
26/09:00am 2.2 -10.3 2.1 99 0.0 NW 57 82 31 44 - - 22.0
26/08:51am 2.2 -8.7 1.3 94 0.4 WNW 48 72 26 39 - - 22.0
26/08:30am 2.4 -7.5 1.4 93 0.4 WNW 43 56 23 30 - - 21.4
26/08:00am 2.5 -9.2 1.0 90 0.6 WNW 52 69 28 37 - - 21.4
26/07:59am 2.5 -9.3 0.7 88 0.7 WNW 52 74 28 40 - - 21.4
26/07:56am 2.5 -10.0 0.6 87 0.7 WNW 56 78 30 42 - - 21.4
26/07:30am 2.0 -12.2 0.8 92 0.5 NW 65 100 35 54 - - 21.2
26/07:28am 2.2 -11.7 0.6 89 0.6 NW 63 100 34 54 - - 21.2
26/07:00am 2.2 -11.0 0.1 86 0.8 WNW 59 82 32 44 - - 21.0
26/06:30am 1.6 -11.5 0.4 92 0.5 WNW 59 80 32 43 - - 20.8
26/06:21am 1.9 -10.3 0.6 91 0.5 WNW 54 72 29 39 - - 20.6
26/06:18am 1.9 -10.3 0.4 90 0.6 WNW 54 69 29 37 - - 20.6
26/06:00am 1.3 -13.7 0.4 94 0.3 WNW 69 100 37 54 - - 20.6
26/05:51am 2.1 -13.4 -1.2 79 1.2 WNW 70 100 38 54 - - 20.6
26/05:30am 2.4 -9.8 0.5 87 0.7 WNW 54 76 29 41 - - 20.2
26/05:00am 1.4 -9.2 0.5 94 0.3 WNW 46 72 25 39 - - 19.4
26/04:43am 1.8 -11.3 0.5 91 0.5 WNW 59 83 32 45 - - 19.2
26/04:30am 1.7 -12.5 0.7 93 0.4 WNW 65 95 35 51 - - 19.0
26/04:27am 1.4 -11.3 0.8 96 0.2 WNW 57 91 31 49 - - 19.0
26/04:00am 1.9 -10.3 0.6 91 0.5 WNW 54 74 29 40 - - 19.0
26/03:58am 1.7 -10.4 0.8 94 0.3 WNW 54 70 29 38 - - 19.0
26/03:57am 1.6 -10.5 0.9 95 0.3 WNW 54 83 29 45 - - 19.0
26/03:30am 1.8 -12.8 0.5 91 0.5 WNW 67 89 36 48 - - 18.4
26/03:00am 2.4 -12.7 1.5 94 0.4 WNW 70 95 38 51 - - 18.0
26/02:39am 2.5 -12.7 0.4 86 0.8 WNW 70 98 38 53 - - 18.0
26/02:32am 2.4 -10.3 0.6 88 0.7 WNW 57 80 31 43 - - 18.0
26/02:30am 2.3 -10.4 0.8 90 0.6 WNW 57 74 31 40 - - 18.0
26/02:00am 2.0 -11.7 1.9 99 0.0 NW 63 89 34 48 - - 17.6
26/01:47am 2.3 -13.2 1.3 93 0.4 WNW 72 91 39 49 - - 17.6
26/01:40am 1.7 -12.4 1.6 99 0.0 WNW 65 87 35 47 - - 17.4
26/01:30am 1.5 -10.6 1.2 98 0.1 WNW 54 74 29 40 - - 17.0
26/01:05am 1.6 -10.8 1.5 99 0.0 NW 56 78 30 42 - - 16.0
26/01:00am 1.7 -10.7 1.6 99 0.0 NW 56 72 30 39 - - 15.8
26/12:50am 1.9 -11.0 1.8 99 0.0 NW 59 80 32 43 - - 15.4
26/12:30am 2.1 -9.8 2.0 99 0.0 NW 54 65 29 35 - - 15.2
26/12:14am 1.3 -11.7 1.2 99 0.0 NW 59 83 32 45 - - 14.4
26/12:00am 1.0 -11.7 0.9 99 0.0 NW 57 76 31 41 - - 13.6
 
Date/Time
EST
Temp
°C
App
Temp
°C
Dew
Point
°C
Rel
Hum
%
Delta-T
°C
Wind Press
QNH
hPa
Press
MSL
hPa
Rain since
9am
mm
Dir  Spd
km/h
Gust
km/h
Spd
kts
Gust
kts
25/11:58pm 1.0 -12.4 0.9 99 0.0 NW 61 76 33 41 - - 13.4
25/11:30pm 2.1 -11.2 1.8 98 0.1 WNW 61 102 33 55 - - 12.8
25/11:26pm 1.9 -10.1 1.8 99 0.0 NW 54 102 29 55 - - 12.8
25/11:25pm 2.0 -8.8 1.9 99 0.0 NW 48 102 26 55 - - 12.8
25/11:23pm 1.9 -8.0 1.8 99 0.0 NW 43 69 23 37 - - 12.8
25/11:00pm 2.2 -8.2 2.1 99 0.0 NW 46 61 25 33 - - 12.4
25/10:51pm 2.1 -8.7 1.8 98 0.1 WNW 48 69 26 37 - - 12.4
25/10:40pm 1.7 -10.3 1.6 99 0.0 NW 54 80 29 43 - - 12.2
25/10:39pm 1.7 -9.9 1.6 99 0.0 NW 52 80 28 43 - - 12.2
25/10:35pm 2.3 -8.1 2.2 99 0.0 NW 46 65 25 35 - - 11.8
25/10:30pm 2.4 -8.3 2.3 99 0.0 NW 48 61 26 33 - - 11.6
25/10:19pm 2.2 -10.3 2.1 99 0.0 WNW 57 76 31 41 - - 11.6
25/10:09pm 2.4 -12.5 1.4 93 0.4 WNW 69 98 37 53 - - 11.4
25/10:01pm 3.0 -10.1 2.9 99 0.0 NW 61 98 33 53 - - 11.4
25/10:00pm 2.8 -10.0 2.7 99 0.0 NW 59 98 32 53 - - 11.2
25/09:30pm 2.5 -9.4 2.4 99 0.0 NW 54 74 29 40 - - 11.0
25/09:25pm 2.6 -7.7 2.5 99 0.0 NW 46 74 25 40 - - 11.0
25/09:20pm 2.6 -4.7 2.5 99 0.0 WNW 30 56 16 30 - - 10.8
25/09:00pm 2.4 -6.3 2.3 99 0.0 WNW 37 57 20 31 - - 10.4
25/08:38pm 2.6 -5.6 2.5 99 0.0 NW 35 54 19 29 - - 9.6
25/08:30pm 2.7 -7.0 2.6 99 0.0 NW 43 54 23 29 - - 9.2
25/08:17pm 2.8 -9.4 2.4 97 0.2 WNW 56 74 30 40 - - 8.8
25/08:13pm 3.2 -9.1 3.1 99 0.0 NW 57 74 31 40 - - 8.6
25/08:08pm 3.6 -7.7 3.5 99 0.0 NNW 52 74 28 40 - - 8.4
25/08:00pm 4.0 -8.0 3.9 99 0.0 NNW 56 69 30 37 - - 7.8
25/07:49pm 4.4 -5.6 4.3 99 0.0 NNW 46 63 25 34 - - 7.2
25/07:30pm 4.4 -3.1 4.3 99 0.0 NNW 33 44 18 24 - - 5.8
25/07:00pm 4.5 -2.1 4.4 99 0.0 N 28 46 15 25 - - 4.6
25/06:39pm 4.9 -2.5 3.9 93 0.4 N 32 59 17 32 - - 4.2
25/06:30pm 5.0 -2.6 3.7 91 0.6 N 33 48 18 26 - - 4.2
25/06:07pm 5.3 -2.2 3.3 87 0.9 N 32 52 17 28 - - 4.2
25/06:00pm 4.9 -2.2 3.4 90 0.6 N 30 39 16 21 - - 4.2
25/05:30pm 5.0 -1.8 3.3 89 0.7 N 28 39 15 21 - - 4.0
25/05:00pm 5.2 -0.7 3.9 91 0.6 N 24 35 13 19 - - 4.0
25/04:30pm 5.3 -1.0 4.0 91 0.6 N 26 41 14 22 - - 4.0
25/04:00pm 7.1 2.7 4.6 84 1.1 N 17 26 9 14 - - 4.0
25/03:30pm 7.4 0.5 6.3 93 0.5 NNW 32 44 17 24 - - 4.0
25/03:00pm 6.9 1.6 6.8 99 0.0 NNW 24 41 13 22 - - 4.0
25/02:30pm 7.0 0.6 6.9 99 0.0 NNW 30 39 16 21 - - 4.0
25/02:26pm 6.8 0.7 6.7 99 0.0 NNW 28 39 15 21 - - 4.0
25/02:00pm 7.0 3.5 7.0 100 0.0 NNW 15 20 8 11 - - 4.0
25/01:30pm 6.2 2.1 6.1 99 0.0 NW 17 24 9 13 - - 4.0
25/01:00pm 6.6 2.0 6.5 99 0.0 NNW 20 24 11 13 - - 2.8
25/12:30pm 6.5 1.1 6.4 99 0.0 NNW 24 30 13 16 - - 2.6
25/12:00pm 6.3 2.6 6.2 99 0.0 NNW 15 20 8 11 - - 2.4
25/11:30am 6.2 1.5 6.2 100 0.0 NNW 20 26 11 14 - - 2.0
25/11:00am 5.5 -0.9 5.4 99 0.0 NW 28 35 15 19 - - 1.8
25/10:30am 5.9 1.2 5.9 100 0.0 NNW 20 24 11 13 - - 1.8
25/10:00am 5.3 -0.3 5.3 100 0.0 NNW 24 28 13 15 - - 1.0
25/09:30am 5.5 0.3 5.5 100 0.0 NNW 22 26 12 14 - - 0.0
25/09:00am 4.9 -2.0 4.8 99 0.0 NNW 30 37 16 20 - - 2.2
25/08:30am 4.8 -1.3 4.7 99 0.0 NNW 26 30 14 16 - - 2.2
25/08:00am 4.9 1.3 4.8 99 0.0 WNW 13 19 7 10 - - 2.0
25/07:30am 4.8 -1.3 4.7 99 0.0 NNW 26 33 14 18 - - 1.8
25/07:00am 4.8 -0.6 4.7 99 0.0 NNW 22 30 12 16 - - 1.6
25/06:30am 4.6 -0.4 4.5 99 0.0 N 20 24 11 13 - - 1.6
25/06:00am 4.5 0.0 4.4 99 0.0 N 17 22 9 12 - - 1.6
25/05:30am 4.4 -0.5 4.3 99 0.0 NNW 19 22 10 12 - - 1.6
25/05:00am 4.4 -0.1 4.3 99 0.0 NNW 17 20 9 11 - - 1.6
25/04:30am 4.3 -1.9 4.2 99 0.0 NNW 26 30 14 16 - - 1.6
25/04:00am 4.3 -1.2 4.2 99 0.0 NNW 22 26 12 14 - - 1.6
25/03:30am 4.2 -0.9 4.1 99 0.0 NNW 20 24 11 13 - - 1.6

Other Formats:

Comma delimited format used in spreadsheet applications
http://www.bom.gov.au/fwo/IDT60801/IDT60801.95958.axf

JavaScript Object Notation format (JSON) in row-major order
http://www.bom.gov.au/fwo/IDT60801/IDT60801.95958.json